sensor_id;sensor_type;location;lat;lon;timestamp;P1;durP1;ratioP1;P2;durP2;ratioP2
75593;SDS011;64176;49.156;7.810;2024-02-21T00:00:55;26.60;;;14.38;;
75593;SDS011;64176;49.156;7.810;2024-02-21T00:03:39;26.73;;;15.07;;
75593;SDS011;64176;49.156;7.810;2024-02-21T00:06:26;23.45;;;12.85;;
75593;SDS011;64176;49.156;7.810;2024-02-21T00:09:15;28.98;;;14.32;;
75593;SDS011;64176;49.156;7.810;2024-02-21T00:11:59;21.02;;;11.98;;
75593;SDS011;64176;49.156;7.810;2024-02-21T00:14:45;19.55;;;13.25;;
75593;SDS011;64176;49.156;7.810;2024-02-21T00:17:29;21.80;;;11.48;;
75593;SDS011;64176;49.156;7.810;2024-02-21T00:20:13;27.27;;;14.43;;
75593;SDS011;64176;49.156;7.810;2024-02-21T00:22:57;23.63;;;14.45;;
75593;SDS011;64176;49.156;7.810;2024-02-21T00:25:40;27.50;;;13.00;;
75593;SDS011;64176;49.156;7.810;2024-02-21T00:28:25;25.08;;;12.65;;
75593;SDS011;64176;49.156;7.810;2024-02-21T00:31:09;28.15;;;14.30;;
75593;SDS011;64176;49.156;7.810;2024-02-21T00:33:53;33.17;;;18.20;;
75593;SDS011;64176;49.156;7.810;2024-02-21T00:36:39;33.60;;;18.30;;
75593;SDS011;64176;49.156;7.810;2024-02-21T00:39:26;36.42;;;17.52;;
75593;SDS011;64176;49.156;7.810;2024-02-21T00:42:10;35.40;;;17.42;;
75593;SDS011;64176;49.156;7.810;2024-02-21T00:44:54;45.97;;;24.88;;
75593;SDS011;64176;49.156;7.810;2024-02-21T00:47:38;44.72;;;23.70;;
75593;SDS011;64176;49.156;7.810;2024-02-21T00:50:22;36.95;;;21.20;;
75593;SDS011;64176;49.156;7.810;2024-02-21T00:53:08;43.65;;;23.92;;
75593;SDS011;64176;49.156;7.810;2024-02-21T00:55:53;35.95;;;19.23;;
75593;SDS011;64176;49.156;7.810;2024-02-21T00:58:38;31.98;;;18.42;;
75593;SDS011;64176;49.156;7.810;2024-02-21T01:01:22;32.10;;;16.23;;
75593;SDS011;64176;49.156;7.810;2024-02-21T01:04:08;43.97;;;21.20;;
75593;SDS011;64176;49.156;7.810;2024-02-21T01:06:53;43.03;;;21.25;;
75593;SDS011;64176;49.156;7.810;2024-02-21T01:09:37;28.42;;;14.02;;
75593;SDS011;64176;49.156;7.810;2024-02-21T01:12:21;29.35;;;14.48;;
75593;SDS011;64176;49.156;7.810;2024-02-21T01:15:05;26.95;;;15.68;;
75593;SDS011;64176;49.156;7.810;2024-02-21T01:20:38;32.47;;;17.25;;
75593;SDS011;64176;49.156;7.810;2024-02-21T01:23:24;32.63;;;18.90;;
75593;SDS011;64176;49.156;7.810;2024-02-21T01:26:08;35.33;;;18.75;;
75593;SDS011;64176;49.156;7.810;2024-02-21T01:28:52;28.30;;;16.13;;
75593;SDS011;64176;49.156;7.810;2024-02-21T01:31:36;33.55;;;18.70;;
75593;SDS011;64176;49.156;7.810;2024-02-21T01:34:20;30.52;;;16.92;;
75593;SDS011;64176;49.156;7.810;2024-02-21T01:37:04;84.00;;;35.45;;
75593;SDS011;64176;49.156;7.810;2024-02-21T01:39:55;45.55;;;21.10;;
75593;SDS011;64176;49.156;7.810;2024-02-21T01:42:39;32.38;;;17.88;;
75593;SDS011;64176;49.156;7.810;2024-02-21T01:45:29;25.23;;;14.55;;
75593;SDS011;64176;49.156;7.810;2024-02-21T01:48:13;28.40;;;16.23;;
75593;SDS011;64176;49.156;7.810;2024-02-21T01:51:00;34.60;;;17.30;;
75593;SDS011;64176;49.156;7.810;2024-02-21T01:53:46;34.42;;;17.80;;
75593;SDS011;64176;49.156;7.810;2024-02-21T01:56:29;29.52;;;17.48;;
75593;SDS011;64176;49.156;7.810;2024-02-21T01:59:14;30.42;;;16.63;;
75593;SDS011;64176;49.156;7.810;2024-02-21T02:02:02;31.40;;;17.92;;
75593;SDS011;64176;49.156;7.810;2024-02-21T02:04:46;31.77;;;17.75;;
75593;SDS011;64176;49.156;7.810;2024-02-21T02:07:31;26.42;;;15.45;;
75593;SDS011;64176;49.156;7.810;2024-02-21T02:10:18;26.48;;;15.63;;
75593;SDS011;64176;49.156;7.810;2024-02-21T02:13:02;24.15;;;15.40;;
75593;SDS011;64176;49.156;7.810;2024-02-21T02:15:49;23.45;;;13.93;;
75593;SDS011;64176;49.156;7.810;2024-02-21T02:18:34;25.30;;;14.15;;
75593;SDS011;64176;49.156;7.810;2024-02-21T02:21:38;27.63;;;14.00;;
75593;SDS011;64176;49.156;7.810;2024-02-21T02:24:26;23.90;;;13.75;;
75593;SDS011;64176;49.156;7.810;2024-02-21T02:27:10;22.38;;;13.90;;
75593;SDS011;64176;49.156;7.810;2024-02-21T02:29:53;41.20;;;16.73;;
75593;SDS011;64176;49.156;7.810;2024-02-21T02:32:43;46.05;;;22.67;;
75593;SDS011;64176;49.156;7.810;2024-02-21T02:35:28;60.45;;;24.02;;
75593;SDS011;64176;49.156;7.810;2024-02-21T02:38:12;45.05;;;21.95;;
75593;SDS011;64176;49.156;7.810;2024-02-21T02:40:57;23.85;;;12.77;;
75593;SDS011;64176;49.156;7.810;2024-02-21T02:43:41;23.23;;;12.27;;
75593;SDS011;64176;49.156;7.810;2024-02-21T02:46:30;23.90;;;11.10;;
75593;SDS011;64176;49.156;7.810;2024-02-21T02:49:14;19.05;;;10.90;;
75593;SDS011;64176;49.156;7.810;2024-02-21T02:51:58;20.08;;;11.48;;
75593;SDS011;64176;49.156;7.810;2024-02-21T02:54:44;19.17;;;10.10;;
75593;SDS011;64176;49.156;7.810;2024-02-21T02:57:28;18.70;;;11.10;;
75593;SDS011;64176;49.156;7.810;2024-02-21T03:00:15;22.88;;;12.07;;
75593;SDS011;64176;49.156;7.810;2024-02-21T03:05:48;18.75;;;10.43;;
75593;SDS011;64176;49.156;7.810;2024-02-21T03:08:35;21.33;;;10.00;;
75593;SDS011;64176;49.156;7.810;2024-02-21T03:11:21;21.20;;;10.20;;
75593;SDS011;64176;49.156;7.810;2024-02-21T03:14:12;19.88;;;10.52;;
75593;SDS011;64176;49.156;7.810;2024-02-21T03:16:58;22.85;;;11.23;;
75593;SDS011;64176;49.156;7.810;2024-02-21T03:19:43;18.05;;;9.65;;
75593;SDS011;64176;49.156;7.810;2024-02-21T03:22:27;21.70;;;9.73;;
75593;SDS011;64176;49.156;7.810;2024-02-21T03:25:11;21.05;;;9.43;;
75593;SDS011;64176;49.156;7.810;2024-02-21T03:27:56;18.73;;;9.90;;
75593;SDS011;64176;49.156;7.810;2024-02-21T03:30:40;18.77;;;10.52;;
75593;SDS011;64176;49.156;7.810;2024-02-21T03:33:23;22.63;;;10.50;;
75593;SDS011;64176;49.156;7.810;2024-02-21T03:36:12;22.55;;;10.75;;
75593;SDS011;64176;49.156;7.810;2024-02-21T03:39:00;16.73;;;9.10;;
75593;SDS011;64176;49.156;7.810;2024-02-21T03:41:46;19.77;;;8.35;;
75593;SDS011;64176;49.156;7.810;2024-02-21T03:44:31;13.10;;;6.70;;
75593;SDS011;64176;49.156;7.810;2024-02-21T03:47:18;18.35;;;6.50;;
75593;SDS011;64176;49.156;7.810;2024-02-21T03:50:02;10.05;;;6.13;;
75593;SDS011;64176;49.156;7.810;2024-02-21T03:52:48;17.77;;;6.85;;
75593;SDS011;64176;49.156;7.810;2024-02-21T03:55:32;14.35;;;6.30;;
75593;SDS011;64176;49.156;7.810;2024-02-21T03:58:19;11.73;;;6.38;;
75593;SDS011;64176;49.156;7.810;2024-02-21T04:01:03;9.98;;;5.93;;
75593;SDS011;64176;49.156;7.810;2024-02-21T04:03:49;8.95;;;4.68;;
75593;SDS011;64176;49.156;7.810;2024-02-21T04:06:33;11.13;;;4.93;;
75593;SDS011;64176;49.156;7.810;2024-02-21T04:09:17;8.77;;;4.07;;
75593;SDS011;64176;49.156;7.810;2024-02-21T04:12:02;9.10;;;4.20;;
75593;SDS011;64176;49.156;7.810;2024-02-21T04:14:47;8.15;;;5.43;;
75593;SDS011;64176;49.156;7.810;2024-02-21T04:17:36;14.52;;;5.85;;
75593;SDS011;64176;49.156;7.810;2024-02-21T04:20:20;11.48;;;5.07;;
75593;SDS011;64176;49.156;7.810;2024-02-21T04:23:09;8.52;;;4.68;;
75593;SDS011;64176;49.156;7.810;2024-02-21T04:25:53;7.32;;;4.38;;
75593;SDS011;64176;49.156;7.810;2024-02-21T04:28:39;9.30;;;4.65;;
75593;SDS011;64176;49.156;7.810;2024-02-21T04:31:23;10.50;;;5.13;;
75593;SDS011;64176;49.156;7.810;2024-02-21T04:34:08;9.10;;;4.88;;
75593;SDS011;64176;49.156;7.810;2024-02-21T04:36:52;12.43;;;5.88;;
75593;SDS011;64176;49.156;7.810;2024-02-21T04:39:36;10.38;;;5.68;;
75593;SDS011;64176;49.156;7.810;2024-02-21T04:42:23;6.50;;;4.55;;
75593;SDS011;64176;49.156;7.810;2024-02-21T04:45:07;8.90;;;4.88;;
75593;SDS011;64176;49.156;7.810;2024-02-21T04:47:53;8.02;;;4.10;;
75593;SDS011;64176;49.156;7.810;2024-02-21T04:50:40;9.95;;;4.25;;
75593;SDS011;64176;49.156;7.810;2024-02-21T04:53:25;12.00;;;5.40;;
75593;SDS011;64176;49.156;7.810;2024-02-21T04:56:11;13.05;;;5.93;;
75593;SDS011;64176;49.156;7.810;2024-02-21T04:58:58;12.82;;;5.30;;
75593;SDS011;64176;49.156;7.810;2024-02-21T05:01:44;14.15;;;5.43;;
75593;SDS011;64176;49.156;7.810;2024-02-21T05:04:28;10.23;;;5.47;;
75593;SDS011;64176;49.156;7.810;2024-02-21T05:07:14;12.80;;;6.70;;
75593;SDS011;64176;49.156;7.810;2024-02-21T05:09:58;9.95;;;6.45;;
75593;SDS011;64176;49.156;7.810;2024-02-21T05:12:42;9.82;;;5.82;;
75593;SDS011;64176;49.156;7.810;2024-02-21T05:15:28;10.95;;;6.20;;
75593;SDS011;64176;49.156;7.810;2024-02-21T05:18:13;10.32;;;5.30;;
75593;SDS011;64176;49.156;7.810;2024-02-21T05:20:57;8.93;;;5.13;;
75593;SDS011;64176;49.156;7.810;2024-02-21T05:23:43;12.70;;;8.50;;
75593;SDS011;64176;49.156;7.810;2024-02-21T05:26:27;11.60;;;6.18;;
75593;SDS011;64176;49.156;7.810;2024-02-21T05:29:12;13.23;;;6.55;;
75593;SDS011;64176;49.156;7.810;2024-02-21T05:31:58;14.73;;;9.32;;
75593;SDS011;64176;49.156;7.810;2024-02-21T05:34:42;15.77;;;9.27;;
75593;SDS011;64176;49.156;7.810;2024-02-21T05:37:27;15.13;;;8.80;;
75593;SDS011;64176;49.156;7.810;2024-02-21T05:40:11;12.38;;;6.57;;
75593;SDS011;64176;49.156;7.810;2024-02-21T05:42:57;10.82;;;6.78;;
75593;SDS011;64176;49.156;7.810;2024-02-21T05:45:41;16.65;;;7.72;;
75593;SDS011;64176;49.156;7.810;2024-02-21T05:48:25;18.05;;;8.93;;
75593;SDS011;64176;49.156;7.810;2024-02-21T05:51:09;16.10;;;7.97;;
75593;SDS011;64176;49.156;7.810;2024-02-21T05:53:55;15.85;;;6.72;;
75593;SDS011;64176;49.156;7.810;2024-02-21T05:56:39;15.57;;;8.18;;
75593;SDS011;64176;49.156;7.810;2024-02-21T05:59:28;13.57;;;7.97;;
75593;SDS011;64176;49.156;7.810;2024-02-21T06:02:17;12.90;;;6.78;;
75593;SDS011;64176;49.156;7.810;2024-02-21T06:05:01;12.80;;;7.20;;
75593;SDS011;64176;49.156;7.810;2024-02-21T06:07:45;10.52;;;7.35;;
75593;SDS011;64176;49.156;7.810;2024-02-21T06:10:29;18.25;;;7.72;;
75593;SDS011;64176;49.156;7.810;2024-02-21T06:13:13;16.52;;;8.45;;
75593;SDS011;64176;49.156;7.810;2024-02-21T06:15:59;18.60;;;9.38;;
75593;SDS011;64176;49.156;7.810;2024-02-21T06:18:43;21.00;;;10.95;;
75593;SDS011;64176;49.156;7.810;2024-02-21T06:21:30;23.65;;;11.93;;
75593;SDS011;64176;49.156;7.810;2024-02-21T06:24:14;24.55;;;10.82;;
75593;SDS011;64176;49.156;7.810;2024-02-21T06:27:00;23.27;;;11.00;;
75593;SDS011;64176;49.156;7.810;2024-02-21T06:29:46;23.70;;;12.77;;
75593;SDS011;64176;49.156;7.810;2024-02-21T06:32:30;23.50;;;12.90;;
75593;SDS011;64176;49.156;7.810;2024-02-21T06:35:17;17.83;;;8.13;;
75593;SDS011;64176;49.156;7.810;2024-02-21T06:38:01;22.75;;;10.75;;
75593;SDS011;64176;49.156;7.810;2024-02-21T06:40:45;21.13;;;10.73;;
75593;SDS011;64176;49.156;7.810;2024-02-21T06:43:33;22.40;;;11.82;;
75593;SDS011;64176;49.156;7.810;2024-02-21T06:46:24;26.08;;;12.65;;
75593;SDS011;64176;49.156;7.810;2024-02-21T06:49:15;30.30;;;15.85;;
75593;SDS011;64176;49.156;7.810;2024-02-21T06:51:59;14.45;;;8.05;;
75593;SDS011;64176;49.156;7.810;2024-02-21T06:54:48;16.70;;;9.20;;
75593;SDS011;64176;49.156;7.810;2024-02-21T06:57:33;20.60;;;13.57;;
75593;SDS011;64176;49.156;7.810;2024-02-21T07:00:19;19.23;;;10.68;;
75593;SDS011;64176;49.156;7.810;2024-02-21T07:03:04;13.45;;;10.20;;
75593;SDS011;64176;49.156;7.810;2024-02-21T07:05:49;21.73;;;12.02;;
75593;SDS011;64176;49.156;7.810;2024-02-21T07:08:33;24.52;;;12.70;;
75593;SDS011;64176;49.156;7.810;2024-02-21T07:11:16;21.02;;;13.38;;
75593;SDS011;64176;49.156;7.810;2024-02-21T07:14:03;18.42;;;10.43;;
75593;SDS011;64176;49.156;7.810;2024-02-21T07:16:49;21.52;;;11.20;;
75593;SDS011;64176;49.156;7.810;2024-02-21T07:19:38;14.32;;;9.25;;
75593;SDS011;64176;49.156;7.810;2024-02-21T07:22:22;16.40;;;6.88;;
75593;SDS011;64176;49.156;7.810;2024-02-21T07:25:09;16.27;;;8.95;;
75593;SDS011;64176;49.156;7.810;2024-02-21T07:27:53;16.25;;;8.60;;
75593;SDS011;64176;49.156;7.810;2024-02-21T07:30:39;12.63;;;7.20;;
75593;SDS011;64176;49.156;7.810;2024-02-21T07:33:23;10.98;;;7.10;;
75593;SDS011;64176;49.156;7.810;2024-02-21T07:36:09;14.80;;;7.95;;
75593;SDS011;64176;49.156;7.810;2024-02-21T07:38:55;14.27;;;7.97;;
75593;SDS011;64176;49.156;7.810;2024-02-21T07:41:39;28.15;;;13.32;;
75593;SDS011;64176;49.156;7.810;2024-02-21T07:44:24;23.10;;;14.00;;
75593;SDS011;64176;49.156;7.810;2024-02-21T07:47:08;21.50;;;12.50;;
75593;SDS011;64176;49.156;7.810;2024-02-21T07:49:52;20.58;;;12.15;;
75593;SDS011;64176;49.156;7.810;2024-02-21T07:52:36;18.30;;;11.90;;
75593;SDS011;64176;49.156;7.810;2024-02-21T07:55:20;21.23;;;11.32;;
75593;SDS011;64176;49.156;7.810;2024-02-21T07:58:04;20.85;;;12.65;;
75593;SDS011;64176;49.156;7.810;2024-02-21T08:00:48;18.77;;;11.63;;
75593;SDS011;64176;49.156;7.810;2024-02-21T08:03:33;20.50;;;10.48;;
75593;SDS011;64176;49.156;7.810;2024-02-21T08:06:17;20.08;;;11.18;;
75593;SDS011;64176;49.156;7.810;2024-02-21T08:09:00;21.48;;;14.73;;
75593;SDS011;64176;49.156;7.810;2024-02-21T08:11:44;22.88;;;15.95;;
75593;SDS011;64176;49.156;7.810;2024-02-21T08:14:31;22.60;;;13.90;;
75593;SDS011;64176;49.156;7.810;2024-02-21T08:17:15;23.20;;;13.13;;
75593;SDS011;64176;49.156;7.810;2024-02-21T08:19:59;19.63;;;13.27;;
75593;SDS011;64176;49.156;7.810;2024-02-21T08:22:42;21.73;;;13.57;;
75593;SDS011;64176;49.156;7.810;2024-02-21T08:25:27;28.08;;;18.63;;
75593;SDS011;64176;49.156;7.810;2024-02-21T08:28:13;31.73;;;21.27;;
75593;SDS011;64176;49.156;7.810;2024-02-21T08:31:00;39.85;;;23.85;;
75593;SDS011;64176;49.156;7.810;2024-02-21T08:33:47;37.28;;;25.05;;
75593;SDS011;64176;49.156;7.810;2024-02-21T08:36:33;32.33;;;23.67;;
75593;SDS011;64176;49.156;7.810;2024-02-21T08:39:18;35.33;;;23.95;;
75593;SDS011;64176;49.156;7.810;2024-02-21T08:42:05;29.98;;;22.20;;
75593;SDS011;64176;49.156;7.810;2024-02-21T08:44:49;29.98;;;22.08;;
75593;SDS011;64176;49.156;7.810;2024-02-21T08:47:35;28.08;;;20.90;;
75593;SDS011;64176;49.156;7.810;2024-02-21T08:50:19;31.80;;;20.17;;
75593;SDS011;64176;49.156;7.810;2024-02-21T08:53:03;35.35;;;20.05;;
75593;SDS011;64176;49.156;7.810;2024-02-21T08:55:47;22.55;;;12.70;;
75593;SDS011;64176;49.156;7.810;2024-02-21T08:58:34;9.02;;;5.78;;
75593;SDS011;64176;49.156;7.810;2024-02-21T09:01:20;9.93;;;4.05;;
75593;SDS011;64176;49.156;7.810;2024-02-21T09:04:07;5.57;;;3.13;;
75593;SDS011;64176;49.156;7.810;2024-02-21T09:06:51;7.28;;;3.85;;
75593;SDS011;64176;49.156;7.810;2024-02-21T09:09:38;12.88;;;5.28;;
75593;SDS011;64176;49.156;7.810;2024-02-21T09:12:23;14.73;;;4.45;;
75593;SDS011;64176;49.156;7.810;2024-02-21T09:15:12;11.52;;;4.07;;
75593;SDS011;64176;49.156;7.810;2024-02-21T09:17:59;10.35;;;4.22;;
75593;SDS011;64176;49.156;7.810;2024-02-21T09:20:43;11.93;;;3.80;;
75593;SDS011;64176;49.156;7.810;2024-02-21T09:23:28;8.73;;;3.25;;
75593;SDS011;64176;49.156;7.810;2024-02-21T09:26:11;10.88;;;3.20;;
75593;SDS011;64176;49.156;7.810;2024-02-21T09:29:03;9.32;;;3.08;;
75593;SDS011;64176;49.156;7.810;2024-02-21T09:31:47;11.27;;;3.13;;
75593;SDS011;64176;49.156;7.810;2024-02-21T09:34:31;11.57;;;3.33;;
75593;SDS011;64176;49.156;7.810;2024-02-21T09:37:15;10.30;;;3.20;;
75593;SDS011;64176;49.156;7.810;2024-02-21T09:39:59;8.38;;;3.30;;
75593;SDS011;64176;49.156;7.810;2024-02-21T09:42:46;11.43;;;3.45;;
75593;SDS011;64176;49.156;7.810;2024-02-21T09:45:31;8.63;;;2.53;;
75593;SDS011;64176;49.156;7.810;2024-02-21T09:51:12;12.48;;;4.15;;
75593;SDS011;64176;49.156;7.810;2024-02-21T09:53:59;7.45;;;2.05;;
75593;SDS011;64176;49.156;7.810;2024-02-21T09:56:47;8.60;;;2.78;;
75593;SDS011;64176;49.156;7.810;2024-02-21T09:59:32;6.15;;;1.98;;
75593;SDS011;64176;49.156;7.810;2024-02-21T10:02:22;5.80;;;1.70;;
75593;SDS011;64176;49.156;7.810;2024-02-21T10:05:06;8.98;;;2.45;;
75593;SDS011;64176;49.156;7.810;2024-02-21T10:07:52;7.05;;;2.55;;
75593;SDS011;64176;49.156;7.810;2024-02-21T10:10:45;7.78;;;2.45;;
75593;SDS011;64176;49.156;7.810;2024-02-21T10:13:32;3.55;;;1.73;;
75593;SDS011;64176;49.156;7.810;2024-02-21T10:16:16;9.90;;;2.60;;
75593;SDS011;64176;49.156;7.810;2024-02-21T10:19:00;5.82;;;3.10;;
75593;SDS011;64176;49.156;7.810;2024-02-21T10:24:55;6.97;;;2.30;;
75593;SDS011;64176;49.156;7.810;2024-02-21T10:27:54;6.28;;;2.55;;
75593;SDS011;64176;49.156;7.810;2024-02-21T10:30:38;5.47;;;2.08;;
75593;SDS011;64176;49.156;7.810;2024-02-21T10:33:32;4.47;;;2.38;;
75593;SDS011;64176;49.156;7.810;2024-02-21T10:36:16;4.80;;;2.10;;
75593;SDS011;64176;49.156;7.810;2024-02-21T10:39:00;6.82;;;2.10;;
75593;SDS011;64176;49.156;7.810;2024-02-21T10:41:47;5.25;;;1.73;;
75593;SDS011;64176;49.156;7.810;2024-02-21T10:44:40;6.13;;;1.75;;
75593;SDS011;64176;49.156;7.810;2024-02-21T10:47:25;5.75;;;2.17;;
75593;SDS011;64176;49.156;7.810;2024-02-21T10:50:12;6.15;;;2.00;;
75593;SDS011;64176;49.156;7.810;2024-02-21T10:53:09;5.38;;;1.90;;
75593;SDS011;64176;49.156;7.810;2024-02-21T10:59:14;8.13;;;2.10;;
75593;SDS011;64176;49.156;7.810;2024-02-21T11:02:01;5.95;;;2.80;;
75593;SDS011;64176;49.156;7.810;2024-02-21T11:04:44;4.18;;;1.65;;
75593;SDS011;64176;49.156;7.810;2024-02-21T11:07:30;6.97;;;2.03;;
75593;SDS011;64176;49.156;7.810;2024-02-21T11:10:22;5.43;;;1.83;;
75593;SDS011;64176;49.156;7.810;2024-02-21T11:13:12;6.78;;;2.33;;
75593;SDS011;64176;49.156;7.810;2024-02-21T11:16:08;4.60;;;1.25;;
75593;SDS011;64176;49.156;7.810;2024-02-21T11:19:03;5.32;;;1.90;;
75593;SDS011;64176;49.156;7.810;2024-02-21T11:21:48;10.48;;;1.90;;
75593;SDS011;64176;49.156;7.810;2024-02-21T11:24:33;8.00;;;3.60;;
75593;SDS011;64176;49.156;7.810;2024-02-21T11:27:21;5.50;;;1.83;;
75593;SDS011;64176;49.156;7.810;2024-02-21T11:30:11;6.13;;;2.05;;
75593;SDS011;64176;49.156;7.810;2024-02-21T11:33:02;4.57;;;2.38;;
75593;SDS011;64176;49.156;7.810;2024-02-21T11:35:50;9.95;;;2.05;;
75593;SDS011;64176;49.156;7.810;2024-02-21T11:38:34;6.20;;;1.70;;
75593;SDS011;64176;49.156;7.810;2024-02-21T11:41:19;5.45;;;1.75;;
75593;SDS011;64176;49.156;7.810;2024-02-21T11:44:06;6.78;;;2.30;;
75593;SDS011;64176;49.156;7.810;2024-02-21T11:46:53;7.70;;;2.58;;
75593;SDS011;64176;49.156;7.810;2024-02-21T11:49:43;5.22;;;1.92;;
75593;SDS011;64176;49.156;7.810;2024-02-21T11:52:32;12.77;;;2.58;;
75593;SDS011;64176;49.156;7.810;2024-02-21T11:55:17;7.55;;;2.17;;
75593;SDS011;64176;49.156;7.810;2024-02-21T11:58:03;5.32;;;1.80;;
75593;SDS011;64176;49.156;7.810;2024-02-21T12:00:48;6.68;;;2.45;;
75593;SDS011;64176;49.156;7.810;2024-02-21T12:03:32;6.00;;;1.88;;
75593;SDS011;64176;49.156;7.810;2024-02-21T12:06:19;4.28;;;1.63;;
75593;SDS011;64176;49.156;7.810;2024-02-21T12:09:07;4.03;;;1.95;;
75593;SDS011;64176;49.156;7.810;2024-02-21T12:14:43;8.95;;;2.13;;
75593;SDS011;64176;49.156;7.810;2024-02-21T12:17:27;2.97;;;1.90;;
75593;SDS011;64176;49.156;7.810;2024-02-21T12:20:11;5.63;;;1.52;;
75593;SDS011;64176;49.156;7.810;2024-02-21T12:22:55;7.75;;;1.70;;
75593;SDS011;64176;49.156;7.810;2024-02-21T12:25:39;5.20;;;1.70;;
75593;SDS011;64176;49.156;7.810;2024-02-21T12:28:23;6.40;;;1.77;;
75593;SDS011;64176;49.156;7.810;2024-02-21T12:31:07;3.42;;;1.50;;
75593;SDS011;64176;49.156;7.810;2024-02-21T12:33:51;5.47;;;1.55;;
75593;SDS011;64176;49.156;7.810;2024-02-21T12:36:43;3.58;;;2.00;;
75593;SDS011;64176;49.156;7.810;2024-02-21T12:39:28;7.25;;;2.25;;
75593;SDS011;64176;49.156;7.810;2024-02-21T12:42:15;8.38;;;2.63;;
75593;SDS011;64176;49.156;7.810;2024-02-21T12:45:01;5.93;;;2.55;;
75593;SDS011;64176;49.156;7.810;2024-02-21T12:47:47;8.00;;;2.13;;
75593;SDS011;64176;49.156;7.810;2024-02-21T12:50:36;9.52;;;2.90;;
75593;SDS011;64176;49.156;7.810;2024-02-21T12:53:25;3.58;;;1.50;;
75593;SDS011;64176;49.156;7.810;2024-02-21T12:56:10;6.47;;;1.95;;
75593;SDS011;64176;49.156;7.810;2024-02-21T12:58:57;5.70;;;1.90;;
75593;SDS011;64176;49.156;7.810;2024-02-21T13:01:44;3.90;;;1.73;;
75593;SDS011;64176;49.156;7.810;2024-02-21T13:04:30;7.53;;;1.73;;
75593;SDS011;64176;49.156;7.810;2024-02-21T13:07:14;7.20;;;2.13;;
75593;SDS011;64176;49.156;7.810;2024-02-21T13:09:58;5.38;;;2.30;;
75593;SDS011;64176;49.156;7.810;2024-02-21T13:12:42;7.32;;;1.90;;
75593;SDS011;64176;49.156;7.810;2024-02-21T13:15:26;9.27;;;2.15;;
75593;SDS011;64176;49.156;7.810;2024-02-21T13:18:12;3.58;;;1.52;;
75593;SDS011;64176;49.156;7.810;2024-02-21T13:20:56;4.38;;;1.73;;
75593;SDS011;64176;49.156;7.810;2024-02-21T13:23:42;4.82;;;1.85;;
75593;SDS011;64176;49.156;7.810;2024-02-21T13:26:30;3.67;;;1.38;;
75593;SDS011;64176;49.156;7.810;2024-02-21T13:29:14;4.20;;;1.65;;
75593;SDS011;64176;49.156;7.810;2024-02-21T13:31:58;4.15;;;1.60;;
75593;SDS011;64176;49.156;7.810;2024-02-21T13:34:44;4.93;;;2.67;;
75593;SDS011;64176;49.156;7.810;2024-02-21T13:37:28;5.10;;;1.67;;
75593;SDS011;64176;49.156;7.810;2024-02-21T13:40:13;9.18;;;2.65;;
75593;SDS011;64176;49.156;7.810;2024-02-21T13:42:57;9.80;;;4.00;;
75593;SDS011;64176;49.156;7.810;2024-02-21T13:45:45;12.88;;;5.85;;
75593;SDS011;64176;49.156;7.810;2024-02-21T13:48:40;5.65;;;3.03;;
75593;SDS011;64176;49.156;7.810;2024-02-21T13:51:24;11.95;;;6.05;;
75593;SDS011;64176;49.156;7.810;2024-02-21T13:54:10;12.45;;;4.93;;
75593;SDS011;64176;49.156;7.810;2024-02-21T13:56:55;15.52;;;7.97;;
75593;SDS011;64176;49.156;7.810;2024-02-21T13:59:39;5.75;;;3.13;;
75593;SDS011;64176;49.156;7.810;2024-02-21T14:02:23;5.25;;;3.13;;
75593;SDS011;64176;49.156;7.810;2024-02-21T14:05:12;11.52;;;5.40;;
75593;SDS011;64176;49.156;7.810;2024-02-21T14:07:59;12.57;;;5.82;;
75593;SDS011;64176;49.156;7.810;2024-02-21T14:10:43;12.52;;;6.72;;
75593;SDS011;64176;49.156;7.810;2024-02-21T14:13:27;9.23;;;4.75;;
75593;SDS011;64176;49.156;7.810;2024-02-21T14:16:12;7.75;;;5.47;;
75593;SDS011;64176;49.156;7.810;2024-02-21T14:18:59;8.48;;;5.22;;
75593;SDS011;64176;49.156;7.810;2024-02-21T14:21:43;8.18;;;3.95;;
75593;SDS011;64176;49.156;7.810;2024-02-21T14:24:28;5.13;;;2.45;;
75593;SDS011;64176;49.156;7.810;2024-02-21T14:27:12;10.98;;;5.20;;
75593;SDS011;64176;49.156;7.810;2024-02-21T14:29:59;8.23;;;2.67;;
75593;SDS011;64176;49.156;7.810;2024-02-21T14:32:44;5.05;;;3.33;;
75593;SDS011;64176;49.156;7.810;2024-02-21T14:35:28;9.65;;;4.20;;
75593;SDS011;64176;49.156;7.810;2024-02-21T14:38:15;6.90;;;2.47;;
75593;SDS011;64176;49.156;7.810;2024-02-21T14:40:59;6.88;;;2.75;;
75593;SDS011;64176;49.156;7.810;2024-02-21T14:43:43;8.18;;;3.10;;
75593;SDS011;64176;49.156;7.810;2024-02-21T14:46:27;7.32;;;2.95;;
75593;SDS011;64176;49.156;7.810;2024-02-21T14:49:14;7.07;;;3.53;;
75593;SDS011;64176;49.156;7.810;2024-02-21T14:51:58;8.68;;;2.72;;
75593;SDS011;64176;49.156;7.810;2024-02-21T14:54:42;4.13;;;1.90;;
75593;SDS011;64176;49.156;7.810;2024-02-21T14:57:32;4.18;;;2.70;;
75593;SDS011;64176;49.156;7.810;2024-02-21T15:00:18;6.97;;;3.40;;
75593;SDS011;64176;49.156;7.810;2024-02-21T15:03:05;4.78;;;2.42;;
75593;SDS011;64176;49.156;7.810;2024-02-21T15:05:51;6.97;;;2.40;;
75593;SDS011;64176;49.156;7.810;2024-02-21T15:08:36;5.32;;;2.40;;
75593;SDS011;64176;49.156;7.810;2024-02-21T15:11:20;6.22;;;2.28;;
75593;SDS011;64176;49.156;7.810;2024-02-21T15:14:05;6.75;;;2.05;;
75593;SDS011;64176;49.156;7.810;2024-02-21T15:16:55;5.20;;;2.45;;
75593;SDS011;64176;49.156;7.810;2024-02-21T15:19:40;4.30;;;1.80;;
75593;SDS011;64176;49.156;7.810;2024-02-21T15:22:27;5.57;;;2.90;;
75593;SDS011;64176;49.156;7.810;2024-02-21T15:25:11;7.22;;;2.40;;
75593;SDS011;64176;49.156;7.810;2024-02-21T15:27:58;2.90;;;2.15;;
75593;SDS011;64176;49.156;7.810;2024-02-21T15:30:43;5.20;;;2.67;;
75593;SDS011;64176;49.156;7.810;2024-02-21T15:33:27;5.72;;;3.40;;
75593;SDS011;64176;49.156;7.810;2024-02-21T15:36:14;9.13;;;5.13;;
75593;SDS011;64176;49.156;7.810;2024-02-21T15:38:58;9.15;;;4.35;;
75593;SDS011;64176;49.156;7.810;2024-02-21T15:41:46;6.28;;;3.22;;
75593;SDS011;64176;49.156;7.810;2024-02-21T15:44:30;4.35;;;2.65;;
75593;SDS011;64176;49.156;7.810;2024-02-21T15:47:14;7.40;;;3.42;;
75593;SDS011;64176;49.156;7.810;2024-02-21T15:50:03;10.25;;;3.13;;
75593;SDS011;64176;49.156;7.810;2024-02-21T15:52:47;8.32;;;3.13;;
75593;SDS011;64176;49.156;7.810;2024-02-21T15:55:31;4.50;;;2.30;;
75593;SDS011;64176;49.156;7.810;2024-02-21T15:58:15;7.43;;;3.17;;
75593;SDS011;64176;49.156;7.810;2024-02-21T16:00:59;5.30;;;3.13;;
75593;SDS011;64176;49.156;7.810;2024-02-21T16:03:46;6.50;;;3.25;;
75593;SDS011;64176;49.156;7.810;2024-02-21T16:06:30;7.82;;;4.45;;
75593;SDS011;64176;49.156;7.810;2024-02-21T16:09:14;11.27;;;5.70;;
75593;SDS011;64176;49.156;7.810;2024-02-21T16:11:59;9.57;;;4.68;;
75593;SDS011;64176;49.156;7.810;2024-02-21T16:14:51;8.02;;;5.50;;
75593;SDS011;64176;49.156;7.810;2024-02-21T16:17:35;9.05;;;5.68;;
75593;SDS011;64176;49.156;7.810;2024-02-21T16:20:19;10.82;;;5.55;;
75593;SDS011;64176;49.156;7.810;2024-02-21T16:23:03;7.10;;;5.25;;
75593;SDS011;64176;49.156;7.810;2024-02-21T16:25:48;9.20;;;5.63;;
75593;SDS011;64176;49.156;7.810;2024-02-21T16:28:31;6.22;;;3.92;;
75593;SDS011;64176;49.156;7.810;2024-02-21T16:31:15;6.45;;;3.30;;
75593;SDS011;64176;49.156;7.810;2024-02-21T16:33:59;6.78;;;4.28;;
75593;SDS011;64176;49.156;7.810;2024-02-21T16:36:46;7.07;;;4.18;;
75593;SDS011;64176;49.156;7.810;2024-02-21T16:39:30;8.80;;;6.20;;
75593;SDS011;64176;49.156;7.810;2024-02-21T16:42:16;15.15;;;10.02;;